Time;durP1;ratioP1;P1;durP2;ratioP2;P2;SDS_P1;SDS_P2;PMS_P1;PMS_P2;Temp;Humidity;BMP_temperature;BMP_pressure;BME280_temperature;BME280_humidity;BME280_pressure;Samples;Min_cycle;Max_cycle;Signal;HPM_P1;HPM_P2
2023/12/26 00:01:45;;;;;;;5.30;4.47;;;22.90;71.50;;;;;;6222003;28;88974;-67
2023/12/26 00:04:47;;;;;;;7.13;4.80;;;23.00;71.50;;;;;;6212132;28;91006;-66
2023/12/26 00:07:49;;;;;;;5.20;4.40;;;23.00;71.40;;;;;;6202753;28;89441;-66
2023/12/26 00:10:51;;;;;;;5.15;4.50;;;22.90;71.40;;;;;;6220288;28;89044;-66
2023/12/26 00:13:53;;;;;;;6.00;4.70;;;22.90;71.50;;;;;;6221415;28;89057;-66
2023/12/26 00:16:57;;;;;;;5.85;4.75;;;22.90;71.50;;;;;;6226567;28;88921;-66
2023/12/26 00:19:59;;;;;;;5.30;4.57;;;22.90;71.50;;;;;;6212184;28;89144;-66
2023/12/26 00:23:01;;;;;;;5.38;4.68;;;22.80;71.40;;;;;;6226744;28;88338;-66
2023/12/26 00:26:04;;;;;;;5.15;4.60;;;22.80;71.50;;;;;;6227134;28;89086;-66
2023/12/26 00:29:06;;;;;;;6.07;4.85;;;22.80;71.50;;;;;;6223882;28;87926;-65
2023/12/26 00:32:10;;;;;;;5.30;4.43;;;22.80;71.60;;;;;;6217363;28;90037;-66
2023/12/26 00:35:13;;;;;;;5.75;4.97;;;22.80;71.70;;;;;;6215858;28;89451;-66
2023/12/26 00:38:15;;;;;;;5.68;4.72;;;22.80;71.80;;;;;;6225759;28;87826;-66
2023/12/26 00:41:17;;;;;;;5.88;5.00;;;22.80;71.80;;;;;;6225818;28;89053;-66
2023/12/26 00:44:19;;;;;;;7.32;4.70;;;22.80;71.80;;;;;;6226593;28;88335;-66
2023/12/26 00:47:23;;;;;;;5.25;4.70;;;22.80;71.70;;;;;;6221774;28;88963;-66
2023/12/26 00:50:25;;;;;;;7.03;4.72;;;22.80;71.80;;;;;;6228792;28;89114;-66
2023/12/26 00:53:27;;;;;;;6.88;5.35;;;22.80;71.80;;;;;;6222014;28;88557;-66
2023/12/26 00:56:29;;;;;;;6.88;5.47;;;22.80;71.80;;;;;;6217832;28;89031;-65
2023/12/26 00:59:31;;;;;;;6.65;4.97;;;22.80;71.70;;;;;;6231839;28;89060;-65
2023/12/26 01:02:34;;;;;;;5.43;4.93;;;22.80;71.80;;;;;;6230408;28;90092;-66
2023/12/26 01:05:36;;;;;;;6.30;5.30;;;22.80;71.80;;;;;;6211337;28;89264;-66
2023/12/26 01:08:38;;;;;;;6.50;5.28;;;22.80;71.80;;;;;;6224095;28;89048;-65
2023/12/26 01:11:40;;;;;;;6.15;5.40;;;22.80;71.90;;;;;;6219019;28;91095;-66
2023/12/26 01:14:42;;;;;;;6.03;5.25;;;22.80;71.90;;;;;;6211198;28;89160;-65
2023/12/26 01:17:46;;;;;;;5.82;5.20;;;22.80;72.00;;;;;;6210582;28;89195;-65
2023/12/26 01:20:48;;;;;;;6.30;5.40;;;22.80;72.00;;;;;;6222911;28;89005;-65
2023/12/26 01:23:52;;;;;;;7.45;5.55;;;22.70;71.90;;;;;;6223370;28;88048;-66
2023/12/26 01:26:54;;;;;;;8.02;5.75;;;22.70;71.90;;;;;;6218156;28;89130;-66
2023/12/26 01:29:56;;;;;;;6.30;5.70;;;22.70;71.80;;;;;;6225150;28;89027;-65
2023/12/26 01:32:59;;;;;;;6.53;5.88;;;22.70;71.90;;;;;;6217716;28;89981;-65
2023/12/26 01:36:01;;;;;;;8.38;6.35;;;22.70;71.80;;;;;;6220208;28;88757;-66
2023/12/26 01:39:03;;;;;;;7.30;6.28;;;22.70;71.80;;;;;;6223691;28;87934;-66
2023/12/26 01:42:06;;;;;;;6.57;5.88;;;22.70;71.80;;;;;;6216668;28;89274;-65
2023/12/26 01:45:08;;;;;;;7.10;6.15;;;22.70;71.80;;;;;;6220625;28;91477;-66
2023/12/26 01:48:13;;;;;;;7.38;6.22;;;22.70;71.70;;;;;;6215074;28;89209;-65
2023/12/26 01:51:15;;;;;;;7.47;6.32;;;22.70;71.70;;;;;;6221595;28;87994;-66
2023/12/26 01:54:17;;;;;;;7.43;6.50;;;22.60;71.60;;;;;;6227967;28;88276;-66
2023/12/26 01:57:19;;;;;;;6.75;6.05;;;22.70;71.60;;;;;;6219073;28;89040;-66
2023/12/26 02:00:22;;;;;;;8.77;6.80;;;22.60;71.50;;;;;;6225018;28;89088;-66
2023/12/26 02:03:27;;;;;;;11.55;7.63;;;22.70;71.60;;;;;;6212280;28;90361;-66
2023/12/26 02:06:31;;;;;;;7.60;6.78;;;22.60;71.50;;;;;;6225704;28;88919;-66
2023/12/26 02:09:33;;;;;;;7.30;6.60;;;22.60;71.50;;;;;;6217903;28;89492;-66
2023/12/26 02:12:35;;;;;;;8.15;6.78;;;22.60;71.50;;;;;;6225188;28;87991;-66
2023/12/26 02:15:37;;;;;;;7.18;6.45;;;22.60;71.50;;;;;;6227651;28;89034;-66
2023/12/26 02:18:41;;;;;;;8.45;7.00;;;22.60;71.50;;;;;;6229437;28;89466;-66
2023/12/26 02:21:44;;;;;;;7.10;6.35;;;22.60;71.50;;;;;;6225086;28;89078;-66
2023/12/26 02:24:48;;;;;;;7.90;7.07;;;22.60;71.30;;;;;;6213702;28;88304;-66
2023/12/26 02:27:50;;;;;;;8.30;6.88;;;22.50;71.30;;;;;;6208253;28;88076;-66
2023/12/26 02:30:53;;;;;;;7.60;6.80;;;22.50;71.30;;;;;;6220927;28;89260;-66
2023/12/26 02:33:55;;;;;;;7.70;6.90;;;22.50;71.30;;;;;;6221455;28;90088;-66
2023/12/26 02:36:57;;;;;;;7.97;7.05;;;22.50;71.30;;;;;;6221044;28;89051;-66
2023/12/26 02:40:02;;;;;;;8.75;7.70;;;22.50;71.30;;;;;;6214676;28;89009;-66
2023/12/26 02:43:05;;;;;;;7.93;7.13;;;22.50;71.30;;;;;;6220713;28;89061;-66
2023/12/26 02:46:07;;;;;;;7.72;6.93;;;22.50;71.20;;;;;;6218580;28;89077;-66
2023/12/26 02:49:09;;;;;;;8.27;7.45;;;22.50;71.20;;;;;;6213227;28;89052;-66
2023/12/26 02:52:11;;;;;;;8.40;7.53;;;22.50;71.20;;;;;;6218111;28;89097;-66
2023/12/26 02:55:15;;;;;;;9.25;7.68;;;22.50;71.10;;;;;;6216988;28;88309;-66
2023/12/26 02:58:17;;;;;;;9.23;8.30;;;22.50;71.10;;;;;;6213145;28;89103;-66
2023/12/26 03:01:19;;;;;;;8.80;7.85;;;22.50;71.20;;;;;;6223656;28;88996;-66
2023/12/26 03:04:21;;;;;;;9.60;8.07;;;22.40;71.10;;;;;;6216294;28;90055;-66
2023/12/26 03:07:23;;;;;;;9.90;8.40;;;22.40;71.10;;;;;;6213163;28;88211;-66
2023/12/26 03:10:26;;;;;;;8.88;7.97;;;22.50;71.10;;;;;;6221719;28;89619;-66
2023/12/26 03:13:28;;;;;;;8.60;7.80;;;22.40;71.10;;;;;;6231464;28;89030;-66
2023/12/26 03:16:30;;;;;;;8.80;7.90;;;22.40;71.10;;;;;;6221548;28;88950;-66
2023/12/26 03:19:32;;;;;;;8.38;7.55;;;22.40;71.10;;;;;;6232412;28;89080;-66
2023/12/26 03:22:34;;;;;;;9.88;8.43;;;22.40;71.10;;;;;;6215096;28;89074;-66
2023/12/26 03:25:38;;;;;;;9.50;8.43;;;22.40;71.10;;;;;;6222882;28;88329;-66
2023/12/26 03:28:39;;;;;;;9.52;8.55;;;22.30;71.10;;;;;;6222169;28;88114;-66
2023/12/26 03:31:44;;;;;;;9.15;8.02;;;22.30;71.10;;;;;;6213228;28;88093;-66
2023/12/26 03:34:46;;;;;;;10.52;8.77;;;22.30;71.10;;;;;;6224487;28;90301;-66
2023/12/26 03:37:48;;;;;;;8.55;7.70;;;22.30;71.10;;;;;;6220843;28;89077;-66
2023/12/26 03:40:52;;;;;;;9.30;8.38;;;22.30;71.10;;;;;;6213988;28;89384;-66
2023/12/26 03:43:54;;;;;;;8.85;7.88;;;22.40;71.20;;;;;;6226279;28;89016;-66
2023/12/26 03:46:56;;;;;;;9.70;8.70;;;22.30;71.10;;;;;;6220070;28;89201;-66
2023/12/26 03:49:58;;;;;;;10.48;8.90;;;22.30;71.20;;;;;;6220015;28;89078;-66
2023/12/26 03:53:00;;;;;;;9.38;8.38;;;22.30;71.10;;;;;;6219075;28;88924;-66
2023/12/26 03:56:03;;;;;;;9.45;8.43;;;22.30;71.20;;;;;;6231329;28;88361;-66
2023/12/26 03:59:06;;;;;;;9.43;8.43;;;22.30;71.10;;;;;;6219037;28;89131;-66
2023/12/26 04:02:08;;;;;;;9.40;8.43;;;22.30;71.10;;;;;;6219772;28;88851;-66
2023/12/26 04:05:10;;;;;;;9.68;8.73;;;22.30;71.00;;;;;;6218371;28;90139;-66
2023/12/26 04:08:12;;;;;;;9.98;8.98;;;22.30;71.30;;;;;;6225113;28;89024;-66
2023/12/26 04:11:15;;;;;;;9.27;8.38;;;22.20;71.00;;;;;;6224939;28;88082;-66
2023/12/26 04:14:17;;;;;;;9.93;8.93;;;22.30;71.00;;;;;;6225207;28;87843;-66
2023/12/26 04:17:21;;;;;;;10.43;9.40;;;22.20;71.00;;;;;;6216756;28;89022;-66
2023/12/26 04:20:22;;;;;;;10.27;9.18;;;22.20;71.10;;;;;;6227803;28;89444;-66
2023/12/26 04:23:24;;;;;;;10.15;8.90;;;22.20;71.10;;;;;;6222142;28;89290;-66
2023/12/26 04:26:28;;;;;;;10.63;9.57;;;22.20;71.10;;;;;;6226567;28;88295;-66
2023/12/26 04:29:31;;;;;;;10.15;9.05;;;22.20;71.10;;;;;;6221661;28;89106;-66
2023/12/26 04:32:33;;;;;;;10.55;9.45;;;22.20;71.10;;;;;;6220942;28;88268;-66
2023/12/26 04:35:36;;;;;;;9.93;8.93;;;22.20;71.10;;;;;;6216734;28;90140;-66
2023/12/26 04:38:38;;;;;;;10.60;9.50;;;22.20;71.10;;;;;;6216969;28;89072;-66
2023/12/26 04:41:41;;;;;;;10.48;9.43;;;22.20;70.90;;;;;;6212153;28;89497;-66
2023/12/26 04:44:43;;;;;;;10.43;9.25;;;22.20;70.80;;;;;;6229877;28;89080;-66
2023/12/26 04:47:45;;;;;;;10.45;9.23;;;22.30;70.70;;;;;;6228443;28;89038;-66
2023/12/26 04:50:47;;;;;;;11.50;9.88;;;22.30;70.60;;;;;;6216076;28;89059;-66
2023/12/26 04:53:50;;;;;;;10.10;9.10;;;22.30;70.50;;;;;;6207148;28;88984;-66
2023/12/26 04:57:00;;;;;;;13.93;10.80;;;22.30;70.30;;;;;;6092153;22;88503;-96
2023/12/26 05:00:02;;;;;;;12.57;9.98;;;22.30;70.30;;;;;;6051408;28;88481;-96
2023/12/26 05:03:05;;;;;;;10.57;9.48;;;22.30;70.30;;;;;;6056574;28;90180;-96
2023/12/26 05:06:08;;;;;;;11.65;10.13;;;22.30;70.20;;;;;;6049919;28;89838;-96
2023/12/26 05:09:10;;;;;;;11.13;9.93;;;22.30;70.10;;;;;;6056173;28;87114;-96
2023/12/26 05:12:14;;;;;;;10.32;9.32;;;22.30;70.10;;;;;;6057787;28;89294;-96
2023/12/26 05:15:16;;;;;;;10.88;9.80;;;22.30;70.10;;;;;;6047884;28;88596;-96
2023/12/26 05:18:18;;;;;;;11.80;10.60;;;22.30;70.10;;;;;;6056954;28;89099;-96
2023/12/26 05:21:21;;;;;;;12.80;10.57;;;22.30;70.20;;;;;;6057438;28;89274;-96
2023/12/26 05:24:23;;;;;;;11.60;10.38;;;22.20;70.10;;;;;;6045042;28;89608;-96
2023/12/26 05:27:27;;;;;;;12.00;10.70;;;22.20;70.10;;;;;;6056320;28;90539;-96
2023/12/26 05:30:29;;;;;;;11.57;10.40;;;22.20;70.10;;;;;;6047170;28;89352;-96
2023/12/26 05:33:31;;;;;;;11.80;10.60;;;22.20;70.20;;;;;;6059524;28;89017;-96
2023/12/26 05:36:33;;;;;;;11.80;10.57;;;22.20;70.30;;;;;;6054652;28;88048;-96
2023/12/26 05:39:36;;;;;;;11.48;10.25;;;22.20;70.30;;;;;;6058052;28;88375;-96
2023/12/26 05:42:39;;;;;;;11.27;10.18;;;22.20;70.40;;;;;;6057372;28;90486;-96
2023/12/26 05:45:44;;;;;;;12.40;11.10;;;22.20;70.40;;;;;;6047993;28;90460;-96
2023/12/26 05:48:46;;;;;;;11.65;10.55;;;22.20;70.50;;;;;;6063787;28;87789;-96
2023/12/26 05:51:51;;;;;;;11.82;10.63;;;22.20;70.50;;;;;;6064958;28;89011;-96
2023/12/26 05:54:55;;;;;;;13.40;11.63;;;22.20;70.50;;;;;;6057515;28;87431;-96
2023/12/26 05:57:58;;;;;;;13.80;11.98;;;22.20;70.60;;;;;;6065115;28;86285;-96
2023/12/26 06:01:01;;;;;;;12.27;10.77;;;22.20;70.60;;;;;;6055258;28;87294;-96
2023/12/26 06:04:03;;;;;;;14.63;12.05;;;22.20;70.60;;;;;;6050791;28;87396;-96
2023/12/26 06:07:08;;;;;;;12.57;11.30;;;22.20;70.60;;;;;;6052718;28;90369;-96
2023/12/26 06:10:14;;;;;;;12.30;11.10;;;22.20;70.70;;;;;;6053272;28;89510;-97
2023/12/26 06:13:17;;;;;;;13.30;11.77;;;22.20;70.70;;;;;;6059965;28;88614;-96
2023/12/26 06:16:19;;;;;;;13.77;11.90;;;22.20;70.70;;;;;;6061202;28;88407;-96
2023/12/26 06:19:22;;;;;;;12.27;11.00;;;22.10;70.60;;;;;;6061353;28;89929;-96
2023/12/26 06:22:24;;;;;;;13.35;11.95;;;22.20;70.70;;;;;;6050755;28;87113;-96
2023/12/26 06:25:26;;;;;;;12.70;11.40;;;22.10;70.80;;;;;;6054378;28;88457;-96
2023/12/26 06:28:30;;;;;;;14.68;12.05;;;22.10;70.70;;;;;;6047428;28;87139;-96
2023/12/26 06:31:32;;;;;;;13.20;11.40;;;22.10;70.80;;;;;;6042875;28;88069;-96
2023/12/26 06:34:34;;;;;;;12.25;10.95;;;22.10;70.80;;;;;;6053846;28;91511;-96
2023/12/26 06:37:36;;;;;;;12.75;11.45;;;22.10;70.80;;;;;;6056177;28;92315;-96
2023/12/26 06:40:38;;;;;;;12.40;11.10;;;22.10;70.80;;;;;;6060791;28;88371;-96
2023/12/26 06:43:44;;;;;;;12.30;10.98;;;22.10;70.80;;;;;;6052811;28;90268;-96
2023/12/26 06:46:47;;;;;;;11.25;10.15;;;22.10;70.80;;;;;;6043830;28;89027;-96
2023/12/26 06:49:53;;;;;;;11.93;10.73;;;22.10;70.80;;;;;;6048806;28;87319;-96
2023/12/26 06:52:57;;;;;;;11.68;10.52;;;22.10;70.80;;;;;;6043394;28;90544;-96
2023/12/26 06:55:59;;;;;;;12.25;10.90;;;22.10;70.80;;;;;;6066312;28;88038;-96
2023/12/26 06:59:03;;;;;;;12.10;10.90;;;22.10;70.70;;;;;;6100063;28;86403;-96
2023/12/26 07:02:05;;;;;;;12.38;10.85;;;22.10;70.60;;;;;;6095300;28;89134;-96
2023/12/26 07:05:08;;;;;;;11.35;10.23;;;22.10;70.70;;;;;;6093949;28;88347;-96
2023/12/26 07:08:10;;;;;;;11.95;10.70;;;22.10;70.80;;;;;;6100774;28;90700;-96
2023/12/26 07:11:12;;;;;;;12.25;10.75;;;22.10;70.80;;;;;;6088392;28;87195;-96
2023/12/26 07:14:16;;;;;;;11.75;10.35;;;22.00;70.60;;;;;;6098091;28;89116;-96
2023/12/26 07:17:18;;;;;;;11.48;10.27;;;22.00;70.60;;;;;;6101720;28;87010;-96
2023/12/26 07:20:20;;;;;;;11.10;9.98;;;22.00;70.60;;;;;;6104400;28;89067;-96
2023/12/26 07:23:22;;;;;;;10.90;9.80;;;22.00;70.80;;;;;;6097568;28;88422;-96
2023/12/26 07:26:24;;;;;;;11.07;9.73;;;22.00;70.70;;;;;;6102653;28;90287;-96
2023/12/26 07:29:28;;;;;;;11.02;9.77;;;22.00;70.60;;;;;;6095158;28;89293;-96
2023/12/26 07:32:30;;;;;;;10.98;9.82;;;22.00;70.80;;;;;;6100263;28;88976;-96
2023/12/26 07:35:35;;;;;;;10.00;9.00;;;22.00;70.80;;;;;;6092860;28;89988;-96
2023/12/26 07:38:37;;;;;;;11.27;10.02;;;22.00;70.60;;;;;;6094620;28;90181;-96
2023/12/26 07:41:41;;;;;;;10.60;9.50;;;22.10;70.60;;;;;;6097872;28;89432;-96
2023/12/26 07:44:47;;;;;;;10.30;9.23;;;22.10;70.40;;;;;;6100570;28;89352;-96
2023/12/26 07:47:53;;;;;;;10.70;9.40;;;22.10;70.30;;;;;;6109178;28;89046;-96
2023/12/26 07:50:55;;;;;;;11.18;9.68;;;22.20;70.30;;;;;;6110177;28;90059;-96
2023/12/26 07:53:57;;;;;;;10.60;9.57;;;22.20;70.30;;;;;;6105976;28;89474;-95
2023/12/26 07:56:59;;;;;;;9.98;8.98;;;22.20;70.10;;;;;;6076722;28;89261;-96
2023/12/26 08:00:09;;;;;;;10.70;9.18;;;22.20;70.10;;;;;;6083816;28;88293;-96
2023/12/26 08:03:15;;;;;;;9.85;8.85;;;22.10;70.10;;;;;;6083911;28;90258;-96
2023/12/26 08:06:17;;;;;;;10.05;8.98;;;22.10;70.10;;;;;;6078238;28;88273;-95
2023/12/26 08:09:19;;;;;;;9.70;8.73;;;22.20;70.10;;;;;;6073027;28;90493;-96
2023/12/26 08:12:21;;;;;;;10.65;8.82;;;22.20;70.10;;;;;;6079731;28;88988;-95
2023/12/26 08:15:25;;;;;;;9.07;8.18;;;22.20;70.10;;;;;;6081632;28;89167;-96
2023/12/26 08:18:27;;;;;;;8.65;7.85;;;22.20;70.10;;;;;;6077989;28;88303;-96
2023/12/26 08:21:29;;;;;;;9.52;8.52;;;22.20;70.00;;;;;;6072506;28;89736;-96
2023/12/26 08:24:31;;;;;;;8.20;7.40;;;22.20;69.90;;;;;;6073773;28;88134;-95
2023/12/26 08:27:38;;;;;;;9.30;8.32;;;22.30;69.90;;;;;;6071839;28;89099;-96
2023/12/26 08:30:41;;;;;;;8.40;7.60;;;22.30;69.90;;;;;;6077760;28;87288;-96
2023/12/26 08:33:43;;;;;;;10.80;8.60;;;22.30;69.90;;;;;;6076790;28;87222;-96
2023/12/26 08:36:46;;;;;;;8.73;7.60;;;22.30;69.80;;;;;;6069558;28;91050;-96
2023/12/26 08:39:50;;;;;;;8.20;7.40;;;22.40;69.80;;;;;;6072516;28;89103;-96
2023/12/26 08:42:55;;;;;;;9.45;7.80;;;22.40;69.80;;;;;;6075536;28;89179;-96
2023/12/26 08:45:58;;;;;;;8.20;7.40;;;22.50;69.60;;;;;;6072248;28;88410;-96
2023/12/26 08:49:02;;;;;;;7.93;7.13;;;22.50;69.60;;;;;;6074467;28;87997;-96
2023/12/26 08:52:05;;;;;;;8.52;7.50;;;22.50;69.50;;;;;;6082463;28;88352;-96
2023/12/26 08:55:07;;;;;;;8.65;7.75;;;22.60;69.60;;;;;;6076302;28;87187;-96
2023/12/26 08:58:12;;;;;;;7.63;6.88;;;22.60;69.40;;;;;;6076442;28;87964;-96
2023/12/26 09:01:16;;;;;;;8.13;7.32;;;22.60;69.40;;;;;;6068805;28;87587;-96
2023/12/26 09:04:18;;;;;;;10.23;7.75;;;22.60;69.40;;;;;;6065229;28;89107;-96
2023/12/26 09:07:20;;;;;;;10.98;8.25;;;22.60;69.40;;;;;;6068445;28;89667;-96
2023/12/26 09:10:22;;;;;;;8.50;7.40;;;22.60;69.40;;;;;;6085075;28;88881;-95
2023/12/26 09:13:26;;;;;;;8.45;7.55;;;22.70;69.40;;;;;;6076245;28;88280;-96
2023/12/26 09:16:29;;;;;;;7.88;7.07;;;22.70;69.40;;;;;;6084456;28;88850;-96
2023/12/26 09:19:31;;;;;;;7.68;6.88;;;22.70;69.40;;;;;;6079022;28;87095;-96
2023/12/26 09:22:33;;;;;;;8.52;7.65;;;22.70;69.40;;;;;;6070760;28;87240;-96
2023/12/26 09:25:35;;;;;;;7.63;6.85;;;22.70;69.40;;;;;;6076940;28;89027;-96
2023/12/26 09:28:39;;;;;;;8.80;7.65;;;22.80;69.40;;;;;;6077267;28;89457;-96
2023/12/26 09:31:43;;;;;;;8.10;7.30;;;22.70;69.30;;;;;;6081231;28;87023;-96
2023/12/26 09:34:45;;;;;;;9.85;8.00;;;22.80;69.40;;;;;;6080229;28;88686;-96
2023/12/26 09:37:47;;;;;;;8.38;7.30;;;22.80;69.40;;;;;;6077079;28;88188;-96
2023/12/26 09:40:49;;;;;;;7.72;7.00;;;22.80;69.50;;;;;;6069073;28;88934;-96
2023/12/26 09:43:52;;;;;;;8.32;7.50;;;22.80;69.40;;;;;;6083545;28;87268;-96
2023/12/26 09:46:55;;;;;;;8.05;7.25;;;22.80;69.60;;;;;;6077149;28;87722;-96
2023/12/26 09:49:57;;;;;;;8.43;7.50;;;22.80;69.60;;;;;;6079564;28;87955;-96
2023/12/26 09:53:01;;;;;;;8.70;7.57;;;22.80;69.60;;;;;;6074292;28;90032;-96
2023/12/26 09:56:03;;;;;;;8.65;7.40;;;22.80;69.60;;;;;;6080327;28;89534;-96
2023/12/26 09:59:06;;;;;;;7.95;7.15;;;22.90;69.60;;;;;;6079073;28;89552;-96
2023/12/26 10:02:13;;;;;;;7.88;7.07;;;22.80;69.60;;;;;;6075469;28;87261;-96
2023/12/26 10:05:15;;;;;;;8.55;7.65;;;22.90;69.60;;;;;;6075315;28;88085;-96
2023/12/26 10:08:17;;;;;;;7.90;7.07;;;22.80;69.60;;;;;;6072391;28;88339;-96
2023/12/26 10:11:20;;;;;;;8.02;7.22;;;22.90;69.60;;;;;;6068617;28;90431;-96
2023/12/26 10:14:31;;;;;;;9.10;7.55;;;22.90;69.60;;;;;;6066830;28;88927;-96
2023/12/26 10:17:37;;;;;;;8.38;7.50;;;22.90;69.60;;;;;;6065780;28;89215;-96
2023/12/26 10:20:40;;;;;;;8.38;7.43;;;22.90;69.60;;;;;;6072414;28;88378;-96
2023/12/26 10:23:45;;;;;;;7.75;6.95;;;22.90;69.60;;;;;;6084166;28;87746;-96
2023/12/26 10:26:47;;;;;;;7.97;7.18;;;22.90;69.60;;;;;;6076014;28;89848;-96
2023/12/26 10:29:54;;;;;;;8.30;7.50;;;23.00;69.60;;;;;;6078585;28;88245;-96
2023/12/26 10:33:01;;;;;;;7.50;6.70;;;23.00;69.60;;;;;;6080420;28;88313;-96
2023/12/26 10:36:05;;;;;;;9.05;7.75;;;23.00;69.70;;;;;;6064399;28;89050;-96
2023/12/26 10:39:08;;;;;;;11.70;8.52;;;23.00;69.60;;;;;;6062421;28;88182;-96
2023/12/26 10:42:13;;;;;;;7.85;7.05;;;23.00;69.70;;;;;;6064780;28;92797;-96
2023/12/26 10:45:18;;;;;;;8.48;7.10;;;23.00;69.70;;;;;;6072311;28;89471;-96
2023/12/26 10:48:23;;;;;;;8.35;7.47;;;23.00;69.60;;;;;;6085442;28;89321;-96
2023/12/26 10:51:29;;;;;;;7.47;6.65;;;23.00;69.70;;;;;;6074079;28;90320;-96
2023/12/26 10:54:32;;;;;;;11.68;8.15;;;23.00;69.70;;;;;;6070246;28;87112;-95
2023/12/26 10:57:35;;;;;;;7.85;7.15;;;23.00;69.80;;;;;;6098031;28;91006;-95
2023/12/26 11:00:51;;;;;;;7.30;6.60;;;23.00;69.70;;;;;;6108647;28;87489;-96
2023/12/26 13:54:26;;;;;;;5.93;5.18;;;23.20;69.50;;;;;;6068267;28;88537;-96
2023/12/26 13:58:06;;;;;;;4.90;4.40;;;23.10;69.40;;;;;;6049874;28;89367;-96
2023/12/26 14:01:45;;;;;;;4.93;4.38;;;23.10;69.40;;;;;;6055916;28;89047;-96
2023/12/26 14:05:25;;;;;;;4.30;3.90;;;23.10;69.40;;;;;;6042329;28;88264;-96
2023/12/26 14:09:04;;;;;;;4.75;4.25;;;23.20;69.40;;;;;;6054554;28;87146;-96
2023/12/26 14:12:46;;;;;;;4.72;4.22;;;23.20;69.50;;;;;;6044311;28;88520;-96
2023/12/26 14:16:26;;;;;;;7.22;4.82;;;23.20;69.40;;;;;;6061402;28;89590;-95
2023/12/26 14:20:06;;;;;;;4.32;3.92;;;23.20;69.40;;;;;;6046770;28;87733;-96
2023/12/26 14:23:45;;;;;;;4.45;4.05;;;23.20;69.30;;;;;;6049519;28;89129;-96
2023/12/26 14:27:25;;;;;;;4.45;4.05;;;23.20;69.30;;;;;;6051790;28;89451;-96
2023/12/26 14:31:04;;;;;;;5.15;4.30;;;23.20;69.30;;;;;;6044440;28;88920;-96
2023/12/26 14:34:44;;;;;;;4.50;3.95;;;23.20;69.30;;;;;;6051577;28;88737;-95
2023/12/26 14:38:23;;;;;;;5.85;4.32;;;23.20;69.30;;;;;;6057026;28;89050;-96
2023/12/26 14:42:03;;;;;;;4.43;3.78;;;23.20;69.30;;;;;;6053555;28;88288;-96
2023/12/26 14:45:42;;;;;;;5.07;4.18;;;23.20;69.30;;;;;;6055708;28;89874;-96
2023/12/26 14:49:22;;;;;;;4.25;3.85;;;23.20;69.30;;;;;;6048909;28;88277;-96
2023/12/26 14:53:01;;;;;;;4.22;3.83;;;23.20;69.30;;;;;;6048874;28;87572;-96
2023/12/26 14:56:41;;;;;;;4.20;3.80;;;23.20;69.30;;;;;;6062353;28;86417;-96
2023/12/26 15:00:20;;;;;;;4.25;3.65;;;23.20;69.30;;;;;;6076982;28;88269;-96
2023/12/26 15:03:30;;;;;;;5.78;4.13;;;23.20;69.30;;;;;;6079349;28;88111;-96
2023/12/26 15:06:32;;;;;;;4.28;3.88;;;23.20;69.30;;;;;;6070340;28;89451;-96
2023/12/26 15:09:34;;;;;;;5.50;3.92;;;23.20;69.30;;;;;;6074566;28;89846;-96
2023/12/26 15:12:36;;;;;;;3.78;3.35;;;23.20;69.30;;;;;;6083903;28;88543;-96
2023/12/26 15:15:41;;;;;;;4.20;3.80;;;23.20;69.20;;;;;;6078719;28;87613;-96
2023/12/26 15:18:48;;;;;;;5.53;4.05;;;23.20;69.30;;;;;;6077933;28;88120;-96
2023/12/26 15:21:50;;;;;;;3.97;3.58;;;23.30;69.30;;;;;;6081275;28;88074;-96
2023/12/26 15:24:52;;;;;;;4.00;3.60;;;23.20;69.20;;;;;;6084804;28;87730;-96
2023/12/26 15:27:54;;;;;;;4.93;4.13;;;23.30;69.20;;;;;;6074279;28;87079;-96
2023/12/26 15:30:57;;;;;;;5.38;4.07;;;23.30;69.30;;;;;;6068152;28;87020;-96
2023/12/26 15:34:01;;;;;;;3.60;3.22;;;23.30;69.20;;;;;;6069597;28;88017;-96
2023/12/26 15:37:04;;;;;;;4.47;3.97;;;23.30;69.20;;;;;;6080460;28;89325;-96
2023/12/26 15:40:10;;;;;;;3.67;3.30;;;23.30;69.20;;;;;;6082009;28;87962;-96
2023/12/26 15:43:13;;;;;;;4.90;3.60;;;23.30;69.30;;;;;;6071529;28;88319;-96
2023/12/26 15:46:17;;;;;;;4.22;3.83;;;23.30;69.20;;;;;;6079342;28;88332;-96
2023/12/26 15:49:21;;;;;;;3.90;3.45;;;23.40;69.30;;;;;;6078230;28;87163;-96
2023/12/26 15:52:23;;;;;;;3.78;3.38;;;23.30;69.30;;;;;;6074960;28;90355;-96
2023/12/26 15:55:28;;;;;;;4.05;3.58;;;23.30;69.30;;;;;;6079426;28;87182;-96
2023/12/26 15:58:31;;;;;;;5.50;3.90;;;23.30;69.30;;;;;;6076297;28;86691;-96
2023/12/26 16:01:36;;;;;;;4.00;3.50;;;23.20;69.30;;;;;;6078842;28;88417;-96
2023/12/26 16:04:39;;;;;;;4.00;3.60;;;23.30;69.30;;;;;;6069905;28;88000;-96
2023/12/26 16:07:42;;;;;;;4.43;3.55;;;23.30;69.20;;;;;;6077259;28;88843;-96
2023/12/26 16:10:44;;;;;;;4.68;3.60;;;23.30;69.20;;;;;;6071169;28;87440;-96
2023/12/26 16:13:46;;;;;;;3.47;3.17;;;23.30;69.20;;;;;;6075905;28;87411;-95
2023/12/26 16:16:49;;;;;;;3.70;3.30;;;23.30;69.20;;;;;;6082334;28;88739;-96
2023/12/26 16:19:52;;;;;;;4.50;3.63;;;23.30;69.20;;;;;;6076853;28;89665;-96
2023/12/26 16:22:55;;;;;;;3.40;3.10;;;23.30;69.10;;;;;;6080025;28;89190;-96
2023/12/26 16:25:57;;;;;;;4.40;3.50;;;23.30;69.10;;;;;;6078562;28;87109;-96
2023/12/26 16:28:59;;;;;;;4.65;3.47;;;23.30;69.10;;;;;;6086182;28;87140;-96
2023/12/26 16:32:01;;;;;;;3.65;3.35;;;23.30;69.00;;;;;;6080485;28;90223;-96
2023/12/26 16:35:06;;;;;;;3.60;3.17;;;23.30;69.00;;;;;;6077176;28;88133;-96
2023/12/26 16:38:19;;;;;;;3.45;3.15;;;23.30;69.10;;;;;;6084091;28;88922;-96
2023/12/26 16:41:22;;;;;;;3.53;2.97;;;23.40;69.10;;;;;;6073637;28;89302;-96
2023/12/26 16:44:26;;;;;;;3.10;2.80;;;23.30;69.00;;;;;;6071846;28;87056;-96
2023/12/26 16:47:29;;;;;;;3.78;2.78;;;23.30;69.00;;;;;;6079555;28;88652;-96
2023/12/26 16:50:33;;;;;;;5.32;2.83;;;23.30;67.10;;;;;;6075377;28;88284;-96
2023/12/26 16:53:35;;;;;;;3.25;2.28;;;23.20;65.50;;;;;;6069222;28;88183;-96
2023/12/26 16:56:41;;;;;;;3.17;2.20;;;23.10;64.80;;;;;;6094669;28;90132;-96
2023/12/26 16:59:45;;;;;;;2.85;2.20;;;23.00;64.20;;;;;;6085280;28;89807;-95
2023/12/26 17:02:47;;;;;;;3.25;2.10;;;23.00;64.50;;;;;;6080619;28;89444;-95
2023/12/26 17:05:50;;;;;;;3.38;2.20;;;22.90;64.90;;;;;;6076061;28;90472;-96
2023/12/26 17:08:55;;;;;;;4.70;2.08;;;22.90;64.20;;;;;;6079912;28;91556;-95
2023/12/26 17:11:57;;;;;;;4.93;2.00;;;22.80;64.50;;;;;;6074595;28;88816;-95
2023/12/26 17:14:59;;;;;;;4.07;2.20;;;22.80;65.10;;;;;;6078136;28;89589;-95
2023/12/26 17:18:02;;;;;;;4.95;2.45;;;22.80;65.80;;;;;;6082399;28;87952;-95
2023/12/26 17:21:19;;;;;;;4.45;1.98;;;22.80;66.90;;;;;;6077347;28;88530;-96
2023/12/26 17:24:22;;;;;;;7.30;2.63;;;22.80;67.40;;;;;;6076239;28;88703;-96
2023/12/26 17:27:27;;;;;;;6.32;2.35;;;22.90;67.70;;;;;;6068521;28;87641;-96
2023/12/26 17:30:29;;;;;;;4.78;2.20;;;22.90;67.90;;;;;;6075665;28;88498;-96
2023/12/26 17:33:31;;;;;;;4.50;2.22;;;23.00;68.20;;;;;;6075085;28;87315;-96
2023/12/26 17:36:35;;;;;;;5.95;2.65;;;23.00;68.30;;;;;;6078998;28;89422;-96
2023/12/26 17:39:38;;;;;;;9.63;2.88;;;23.00;68.50;;;;;;6075149;28;88355;-96
2023/12/26 17:42:40;;;;;;;6.38;2.65;;;23.10;68.80;;;;;;6076466;28;88533;-96
2023/12/26 17:45:42;;;;;;;6.78;2.80;;;23.10;67.70;;;;;;6074062;28;89266;-96
2023/12/26 17:48:44;;;;;;;6.43;2.70;;;23.10;67.20;;;;;;6066083;28;89005;-96
2023/12/26 17:51:48;;;;;;;6.43;2.55;;;23.10;67.50;;;;;;6082898;28;89272;-96
2023/12/26 17:54:50;;;;;;;4.50;2.53;;;23.10;67.60;;;;;;6078973;28;89113;-96
2023/12/26 17:57:52;;;;;;;4.97;2.90;;;23.10;67.70;;;;;;6104132;28;89094;-96
2023/12/26 18:00:54;;;;;;;5.63;2.55;;;23.10;67.90;;;;;;6101172;28;87627;-96
2023/12/26 18:03:56;;;;;;;4.90;2.67;;;23.10;67.90;;;;;;6108117;28;88749;-96
2023/12/26 18:07:00;;;;;;;4.65;2.58;;;23.10;68.10;;;;;;6089666;28;87920;-96
2023/12/26 18:10:02;;;;;;;2.83;2.42;;;23.20;68.30;;;;;;6096986;28;89980;-96
2023/12/26 18:13:04;;;;;;;5.18;2.38;;;23.20;68.30;;;;;;6110642;28;90480;-96
2023/12/26 18:16:07;;;;;;;4.05;2.30;;;23.20;68.50;;;;;;6093510;28;89014;-96
2023/12/26 18:19:09;;;;;;;5.05;2.65;;;23.20;68.60;;;;;;6100151;28;87828;-96
2023/12/26 18:22:13;;;;;;;3.80;2.47;;;23.20;68.60;;;;;;6095220;28;89291;-96
2023/12/26 18:25:16;;;;;;;3.03;2.22;;;23.20;68.80;;;;;;6100032;28;88327;-96
2023/12/26 18:28:20;;;;;;;4.20;2.67;;;23.30;68.90;;;;;;6103341;28;88018;-96
2023/12/26 18:31:22;;;;;;;3.47;2.33;;;23.20;68.90;;;;;;6095083;28;87900;-96
2023/12/26 18:34:27;;;;;;;2.80;2.10;;;23.30;69.00;;;;;;6100558;28;90040;-96
2023/12/26 18:37:30;;;;;;;6.68;3.20;;;23.30;69.10;;;;;;6100610;28;89060;-96
2023/12/26 18:40:33;;;;;;;5.82;2.45;;;23.30;69.10;;;;;;6096799;28;90386;-96
2023/12/26 18:43:35;;;;;;;3.60;2.10;;;23.30;67.40;;;;;;6103576;28;89156;-96
2023/12/26 18:46:39;;;;;;;5.55;1.98;;;23.10;65.40;;;;;;6108639;28;89205;-96
2023/12/26 18:49:41;;;;;;;2.95;2.20;;;23.10;65.70;;;;;;6096532;28;90154;-96